Time;durP1;ratioP1;P1;durP2;ratioP2;P2;SDS_P1;SDS_P2;PMS_P1;PMS_P2;Temp;Humidity;BMP_temperature;BMP_pressure;BME280_temperature;BME280_humidity;BME280_pressure;Samples;Min_cycle;Max_cycle;Signal;HPM_P1;HPM_P2
2021/12/11 00:00:09;;;;;;;21.13;13.75;;;5.80;75.10;;;;;;5020789;28;20574;-47
2021/12/11 00:02:38;;;;;;;22.50;12.88;;;5.90;75.40;;;;;;5031104;28;20056;-47
2021/12/11 00:05:06;;;;;;;24.98;14.43;;;5.90;75.10;;;;;;5015316;28;20042;-49
2021/12/11 00:07:34;;;;;;;22.83;14.13;;;5.90;75.00;;;;;;5007882;28;20081;-47
2021/12/11 00:10:24;;;;;;;26.55;15.35;;;5.90;74.90;;;;;;5018873;28;20611;-48
2021/12/11 00:12:57;;;;;;;24.98;14.50;;;6.00;75.40;;;;;;5010547;28;20133;-49
2021/12/11 00:15:33;;;;;;;28.52;13.85;;;6.00;74.80;;;;;;5009759;28;20798;-48
2021/12/11 00:18:04;;;;;;;21.42;14.00;;;6.00;74.80;;;;;;5032401;28;20504;-48
2021/12/11 00:20:34;;;;;;;22.98;14.80;;;6.00;74.60;;;;;;5031468;28;20409;-48
2021/12/11 00:23:03;;;;;;;24.48;14.15;;;6.00;74.60;;;;;;5021019;28;20045;-47
2021/12/11 00:25:30;;;;;;;22.30;14.27;;;6.00;74.60;;;;;;5029516;28;20450;-47
2021/12/11 00:28:07;;;;;;;22.60;14.30;;;6.00;74.70;;;;;;5031979;28;20053;-48
2021/12/11 00:30:40;;;;;;;29.83;14.68;;;6.00;74.80;;;;;;5021652;28;20045;-47
2021/12/11 00:33:15;;;;;;;26.98;14.65;;;6.00;74.70;;;;;;5012398;28;20060;-47
2021/12/11 00:35:42;;;;;;;27.73;14.02;;;6.00;74.70;;;;;;5029594;28;20099;-48
2021/12/11 00:38:16;;;;;;;23.75;12.23;;;6.00;74.70;;;;;;5031866;28;20092;-48
2021/12/11 00:40:46;;;;;;;28.80;14.25;;;6.00;74.80;;;;;;5014789;28;20046;-47
2021/12/11 00:43:17;;;;;;;29.60;13.68;;;6.00;74.80;;;;;;5019260;28;20041;-47
2021/12/11 00:45:46;;;;;;;29.70;14.07;;;6.00;74.90;;;;;;5029570;28;20061;-48
2021/12/11 00:48:19;;;;;;;30.98;15.00;;;6.10;74.90;;;;;;5031488;28;20099;-49
2021/12/11 00:51:03;;;;;;;35.42;15.80;;;6.10;75.10;;;;;;5013883;28;20394;-46
2021/12/11 00:53:36;;;;;;;45.13;14.82;;;6.10;75.10;;;;;;5022127;28;20515;-47
2021/12/11 00:56:11;;;;;;;41.83;14.88;;;6.10;75.10;;;;;;5030804;28;20103;-49
2021/12/11 00:58:39;;;;;;;32.20;15.52;;;6.10;75.30;;;;;;5023114;28;20436;-51
2021/12/11 01:01:07;;;;;;;27.42;15.63;;;6.10;75.20;;;;;;5023283;28;20109;-49
2021/12/11 01:03:35;;;;;;;25.95;16.17;;;6.10;75.30;;;;;;5031182;28;20037;-49
2021/12/11 01:06:09;;;;;;;28.67;16.30;;;6.20;75.30;;;;;;5030629;28;20050;-50
2021/12/11 01:08:40;;;;;;;28.38;16.13;;;6.20;75.60;;;;;;5018867;28;20038;-46
2021/12/11 01:11:34;;;;;;;26.20;16.08;;;6.20;75.50;;;;;;5013685;28;20114;-50
2021/12/11 01:14:24;;;;;;;25.15;15.40;;;6.20;75.60;;;;;;5017333;28;20046;-49
2021/12/11 01:17:06;;;;;;;32.05;16.40;;;6.20;75.50;;;;;;4990695;28;20787;-48
2021/12/11 01:19:39;;;;;;;23.10;14.60;;;6.20;75.40;;;;;;5007857;28;20025;-50
2021/12/11 01:22:23;;;;;;;28.92;15.15;;;6.30;75.30;;;;;;5026656;28;20381;-47
2021/12/11 01:24:52;;;;;;;28.02;15.77;;;6.30;75.30;;;;;;5031268;28;20500;-47
2021/12/11 01:27:23;;;;;;;31.27;16.30;;;6.20;75.20;;;;;;5030787;28;20103;-50
2021/12/11 01:29:56;;;;;;;25.80;14.73;;;6.20;75.20;;;;;;5009411;28;20049;-48
2021/12/11 01:32:26;;;;;;;28.00;15.63;;;6.20;75.20;;;;;;5019463;28;20038;-47
2021/12/11 01:34:58;;;;;;;24.20;14.73;;;6.30;75.30;;;;;;4991090;28;20049;-51
2021/12/11 01:37:25;;;;;;;25.20;15.68;;;6.30;75.30;;;;;;4996118;28;20601;-51
2021/12/11 01:39:53;;;;;;;25.48;15.00;;;6.30;75.30;;;;;;5020697;28;20076;-47
2021/12/11 01:42:27;;;;;;;24.65;15.15;;;6.30;75.20;;;;;;5028799;28;20099;-47
2021/12/11 01:44:56;;;;;;;26.08;14.88;;;6.30;75.30;;;;;;4990578;28;20468;-47
2021/12/11 01:47:36;;;;;;;27.20;15.40;;;6.30;75.20;;;;;;5000381;28;20033;-47
2021/12/11 01:50:30;;;;;;;25.20;15.10;;;6.40;75.40;;;;;;5010369;28;20053;-48
2021/12/11 01:53:05;;;;;;;24.27;15.25;;;6.40;75.60;;;;;;5009970;28;20054;-48
2021/12/11 01:55:45;;;;;;;27.67;15.43;;;6.40;75.20;;;;;;5029261;28;20057;-46
2021/12/11 01:58:22;;;;;;;27.45;16.48;;;6.40;75.30;;;;;;5016610;28;20100;-48
2021/12/11 02:01:02;;;;;;;24.50;16.20;;;6.40;75.20;;;;;;5019637;28;20175;-51
2021/12/11 02:03:33;;;;;;;25.65;15.23;;;6.50;75.20;;;;;;5030650;28;20120;-47
2021/12/11 02:06:00;;;;;;;26.27;15.88;;;6.50;75.00;;;;;;5022137;28;20049;-48
2021/12/11 02:08:30;;;;;;;29.52;16.00;;;6.50;75.00;;;;;;5021874;28;20560;-49
2021/12/11 02:11:27;;;;;;;27.95;15.98;;;6.50;75.10;;;;;;5019372;28;20057;-49
2021/12/11 02:13:59;;;;;;;30.67;16.98;;;6.50;75.40;;;;;;4995154;28;20058;-47
2021/12/11 02:16:43;;;;;;;27.55;16.25;;;6.50;74.90;;;;;;5006266;28;20049;-50
2021/12/11 02:19:30;;;;;;;29.48;17.00;;;6.50;75.10;;;;;;5017545;28;20038;-48
2021/12/11 02:22:07;;;;;;;29.92;17.38;;;6.50;75.00;;;;;;4990187;28;20085;-48
2021/12/11 02:24:57;;;;;;;28.42;17.65;;;6.60;74.90;;;;;;5010589;28;20128;-51
2021/12/11 02:27:31;;;;;;;29.20;17.60;;;6.60;75.00;;;;;;5015653;28;20080;-48
2021/12/11 02:30:15;;;;;;;29.63;17.70;;;6.60;74.80;;;;;;5013642;28;20050;-49
2021/12/11 02:33:03;;;;;;;28.48;16.95;;;6.60;74.70;;;;;;5024461;28;20583;-46
2021/12/11 02:35:53;;;;;;;30.98;17.58;;;6.60;74.50;;;;;;5014261;28;20038;-49
2021/12/11 02:38:32;;;;;;;29.27;17.25;;;6.60;74.60;;;;;;5021727;28;20033;-49
2021/12/11 02:41:28;;;;;;;27.52;17.08;;;6.60;74.40;;;;;;5022941;28;20744;-48
2021/12/11 02:44:01;;;;;;;31.80;18.10;;;6.60;74.30;;;;;;4995345;28;20053;-48
2021/12/11 02:47:05;;;;;;;30.50;17.98;;;6.60;74.30;;;;;;5001322;28;20053;-47
2021/12/11 02:49:54;;;;;;;33.17;18.20;;;6.60;74.60;;;;;;4997655;28;20058;-48
2021/12/11 02:52:42;;;;;;;32.42;19.13;;;6.60;74.40;;;;;;5015249;28;20052;-46
2021/12/11 02:55:28;;;;;;;31.10;18.38;;;6.60;74.60;;;;;;5029337;28;20045;-48
2021/12/11 02:58:02;;;;;;;33.58;17.98;;;6.60;74.40;;;;;;5027845;28;20045;-47
2021/12/11 03:00:33;;;;;;;36.92;18.70;;;6.60;74.40;;;;;;5015108;28;20041;-49
2021/12/11 03:03:07;;;;;;;37.27;19.57;;;6.50;74.50;;;;;;5007217;28;20038;-49
2021/12/11 03:06:02;;;;;;;34.53;19.73;;;6.60;74.60;;;;;;5028025;28;20041;-48
2021/12/11 03:08:29;;;;;;;36.22;19.60;;;6.60;74.80;;;;;;5020637;28;20042;-49
2021/12/11 03:11:00;;;;;;;31.67;17.85;;;6.60;74.50;;;;;;5006686;28;20041;-47
2021/12/11 03:13:29;;;;;;;33.97;19.70;;;6.60;74.60;;;;;;5007691;28;20072;-47
2021/12/11 03:15:56;;;;;;;35.25;20.02;;;6.60;75.20;;;;;;5014163;28;20038;-50
2021/12/11 03:18:23;;;;;;;36.70;20.67;;;6.60;74.50;;;;;;5034051;28;20041;-50
2021/12/11 03:20:51;;;;;;;36.35;21.33;;;6.60;74.50;;;;;;5025394;28;20106;-47
2021/12/11 03:23:19;;;;;;;34.25;21.58;;;6.60;74.50;;;;;;5025690;28;20588;-50
2021/12/11 03:25:46;;;;;;;39.42;21.70;;;6.60;74.60;;;;;;5032518;28;20053;-46
2021/12/11 03:28:15;;;;;;;39.70;23.05;;;6.60;74.50;;;;;;5033541;28;20049;-46
2021/12/11 03:30:51;;;;;;;39.58;21.58;;;6.70;74.60;;;;;;5023547;28;20042;-46
2021/12/11 03:33:19;;;;;;;45.30;23.25;;;6.70;74.50;;;;;;5024159;28;20037;-50
2021/12/11 03:35:47;;;;;;;45.08;24.13;;;6.70;74.40;;;;;;5031443;28;20075;-48
2021/12/11 03:38:15;;;;;;;41.28;22.50;;;6.70;74.50;;;;;;5026354;28;20089;-50
2021/12/11 03:40:43;;;;;;;45.90;23.38;;;6.70;74.60;;;;;;5011016;28;20392;-49
2021/12/11 03:43:13;;;;;;;43.35;22.90;;;6.70;74.60;;;;;;5019509;28;20083;-48
2021/12/11 03:45:46;;;;;;;39.10;22.02;;;6.70;74.80;;;;;;5032932;28;20045;-47
2021/12/11 03:48:35;;;;;;;41.47;23.48;;;6.70;74.90;;;;;;5014903;28;20467;-51
2021/12/11 03:51:06;;;;;;;39.80;21.08;;;6.70;75.10;;;;;;5024478;28;20508;-50
2021/12/11 03:53:33;;;;;;;45.45;22.30;;;6.80;74.90;;;;;;5033379;28;20091;-51
2021/12/11 03:56:04;;;;;;;40.88;22.73;;;6.80;74.90;;;;;;5027056;28;20042;-51
2021/12/11 03:58:31;;;;;;;46.22;24.10;;;6.80;74.90;;;;;;5009498;28;20555;-48
2021/12/11 04:01:09;;;;;;;48.65;25.80;;;6.80;74.80;;;;;;5015969;28;20067;-50
2021/12/11 04:03:41;;;;;;;46.03;24.23;;;6.80;74.80;;;;;;5033266;28;20061;-51
2021/12/11 04:06:10;;;;;;;46.47;24.47;;;6.90;74.70;;;;;;5024419;28;20030;-50
2021/12/11 04:08:41;;;;;;;45.88;23.50;;;6.90;74.70;;;;;;5011907;28;20038;-50
2021/12/11 04:11:12;;;;;;;50.80;26.45;;;6.90;74.60;;;;;;5025371;28;20052;-50
2021/12/11 04:13:39;;;;;;;50.33;26.17;;;6.90;74.50;;;;;;5030849;28;20103;-50
2021/12/11 04:16:07;;;;;;;43.55;25.02;;;6.90;74.40;;;;;;5009678;28;20095;-50
2021/12/11 04:18:35;;;;;;;45.15;24.23;;;6.90;74.40;;;;;;5017777;28;20041;-50
2021/12/11 04:21:02;;;;;;;47.78;24.45;;;6.90;74.40;;;;;;5032084;28;20095;-48
2021/12/11 04:23:30;;;;;;;48.70;25.42;;;6.90;74.30;;;;;;5031525;28;20037;-47
2021/12/11 04:25:58;;;;;;;52.95;24.65;;;6.90;74.40;;;;;;5031083;28;20041;-51
2021/12/11 04:28:29;;;;;;;41.15;22.38;;;6.90;74.30;;;;;;5011226;28;20049;-49
2021/12/11 04:31:04;;;;;;;46.93;23.17;;;6.90;74.30;;;;;;5008039;28;20107;-48
2021/12/11 04:33:38;;;;;;;44.80;23.15;;;6.90;74.30;;;;;;5002524;28;20042;-51
2021/12/11 04:36:10;;;;;;;43.40;22.05;;;6.90;74.30;;;;;;5003814;28;20054;-50
2021/12/11 04:38:38;;;;;;;45.85;24.42;;;6.90;74.30;;;;;;5011246;28;20034;-48
2021/12/11 04:41:14;;;;;;;49.67;23.25;;;6.90;74.30;;;;;;5004537;28;20093;-51
2021/12/11 04:43:41;;;;;;;43.13;22.55;;;6.90;74.40;;;;;;5012184;28;20182;-47
2021/12/11 04:46:10;;;;;;;38.88;21.00;;;6.90;74.40;;;;;;5008597;28;20443;-50
2021/12/11 05:08:12;;;;;;;54.50;27.00;;;7.00;74.50;;;;;;5027887;28;20041;-50
2021/12/11 05:13:20;;;;;;;55.38;26.80;;;7.00;74.50;;;;;;5015990;28;20068;-49
2021/12/11 05:15:52;;;;;;;55.20;26.25;;;7.00;74.40;;;;;;5013292;28;20096;-48
2021/12/11 05:18:23;;;;;;;53.80;26.25;;;7.00;74.40;;;;;;5031358;28;20112;-47
2021/12/11 05:20:56;;;;;;;56.35;28.38;;;7.00;74.50;;;;;;5030279;28;20091;-50
2021/12/11 05:23:23;;;;;;;51.05;25.85;;;7.00;74.70;;;;;;5009664;28;20038;-51
2021/12/11 05:25:51;;;;;;;50.17;25.67;;;7.00;74.70;;;;;;5021413;28;20053;-48
2021/12/11 05:28:18;;;;;;;48.47;27.02;;;7.00;74.80;;;;;;5031237;28;20459;-47
2021/12/11 05:30:49;;;;;;;55.03;26.60;;;7.00;74.80;;;;;;5030432;28;20049;-49
2021/12/11 05:33:18;;;;;;;49.20;23.48;;;7.00;74.80;;;;;;5018022;28;20037;-48
2021/12/11 05:35:45;;;;;;;46.78;25.00;;;7.10;74.90;;;;;;5029930;28;20046;-47
2021/12/11 05:38:14;;;;;;;45.20;24.15;;;7.10;74.70;;;;;;5025750;28;20076;-49
2021/12/11 05:40:54;;;;;;;53.00;25.10;;;7.10;74.70;;;;;;5007757;28;20060;-46
2021/12/11 05:43:21;;;;;;;57.28;25.33;;;7.10;74.70;;;;;;5019437;28;20099;-48
2021/12/11 05:45:48;;;;;;;50.83;24.80;;;7.10;74.50;;;;;;5028488;28;20041;-48
2021/12/11 05:48:18;;;;;;;50.97;25.58;;;7.10;74.40;;;;;;5031103;28;20532;-50
2021/12/11 05:50:50;;;;;;;52.45;24.33;;;7.10;74.50;;;;;;5012394;28;20050;-46
2021/12/11 05:53:21;;;;;;;46.72;24.10;;;7.10;74.50;;;;;;5022959;28;20151;-49
2021/12/11 05:55:51;;;;;;;52.67;27.02;;;7.20;74.60;;;;;;5029650;28;20103;-49
2021/12/11 06:01:15;;;;;;;52.90;26.40;;;7.20;74.60;;;;;;5085031;27;20471;-47
2021/12/11 06:03:43;;;;;;;52.65;26.45;;;7.10;74.50;;;;;;5086039;28;20406;-47
2021/12/11 06:06:09;;;;;;;50.88;26.70;;;7.20;74.60;;;;;;5081124;28;20109;-47
2021/12/11 06:08:37;;;;;;;52.15;25.58;;;7.20;74.60;;;;;;5095275;28;20044;-50
2021/12/11 06:11:07;;;;;;;47.63;24.73;;;7.20;74.50;;;;;;5080887;28;20071;-48
2021/12/11 06:13:34;;;;;;;49.45;26.23;;;7.20;74.50;;;;;;5096012;28;20048;-50
2021/12/11 06:16:02;;;;;;;55.00;27.25;;;7.20;74.50;;;;;;5092429;28;20453;-50
2021/12/11 06:18:29;;;;;;;56.92;27.10;;;7.20;74.60;;;;;;5081173;28;20044;-48
2021/12/11 06:20:57;;;;;;;66.45;28.80;;;7.40;74.80;;;;;;5092634;28;20040;-48
2021/12/11 06:23:25;;;;;;;57.90;27.95;;;7.30;74.60;;;;;;5096138;28;20044;-50
2021/12/11 06:25:53;;;;;;;55.28;28.35;;;7.20;74.60;;;;;;5086014;28;20445;-50
2021/12/11 06:28:20;;;;;;;55.97;28.45;;;7.30;74.50;;;;;;5095334;28;20051;-48
2021/12/11 06:30:47;;;;;;;50.75;27.45;;;7.30;74.50;;;;;;5071194;28;20089;-47
2021/12/11 06:33:14;;;;;;;53.60;27.20;;;7.30;74.50;;;;;;5098775;28;20048;-49
2021/12/11 06:35:46;;;;;;;58.13;28.40;;;7.30;74.60;;;;;;5106623;28;20046;-48
2021/12/11 06:38:17;;;;;;;58.75;28.00;;;7.30;74.50;;;;;;5093174;28;20411;-46
2021/12/11 06:40:44;;;;;;;49.00;26.80;;;7.30;74.50;;;;;;5096975;28;20036;-46
2021/12/11 06:43:11;;;;;;;54.17;26.85;;;7.30;74.50;;;;;;5091213;28;20036;-45
2021/12/11 06:45:38;;;;;;;51.92;26.77;;;7.30;74.40;;;;;;5084643;28;20044;-48
2021/12/11 06:48:06;;;;;;;60.08;28.70;;;7.30;74.50;;;;;;5088816;28;20411;-50
2021/12/11 06:50:33;;;;;;;58.00;26.02;;;7.30;74.50;;;;;;5093754;28;20041;-50
2021/12/11 06:53:07;;;;;;;51.63;26.33;;;7.30;74.60;;;;;;5106563;28;20044;-48
2021/12/11 06:55:33;;;;;;;54.08;27.25;;;7.30;74.60;;;;;;5100337;28;20090;-50
2021/12/11 06:58:00;;;;;;;50.85;27.38;;;7.30;74.70;;;;;;5095297;28;20044;-49
2021/12/11 07:00:32;;;;;;;54.75;26.70;;;7.30;74.80;;;;;;5079846;28;20039;-46
2021/12/11 07:02:59;;;;;;;49.50;23.55;;;7.30;74.70;;;;;;5106573;28;20040;-48
2021/12/11 07:05:26;;;;;;;56.30;25.80;;;7.40;74.70;;;;;;5079944;28;20091;-50
2021/12/11 07:07:52;;;;;;;50.08;25.60;;;7.30;74.60;;;;;;5094083;28;20036;-53
2021/12/11 07:10:20;;;;;;;45.80;24.08;;;7.40;74.80;;;;;;5084194;28;20044;-52
2021/12/11 07:12:49;;;;;;;49.67;23.25;;;7.40;74.80;;;;;;5071360;28;20097;-51
2021/12/11 07:15:17;;;;;;;50.42;21.80;;;7.40;74.80;;;;;;5068653;28;20411;-50
2021/12/11 07:17:44;;;;;;;54.20;25.75;;;7.40;74.80;;;;;;5080142;28;20044;-52
2021/12/11 07:20:12;;;;;;;46.45;23.10;;;7.30;74.80;;;;;;5083392;28;20063;-50
2021/12/11 07:22:41;;;;;;;44.88;22.52;;;7.40;75.00;;;;;;5091463;28;20044;-48
2021/12/11 07:25:29;;;;;;;44.40;22.67;;;7.30;75.00;;;;;;5066798;28;20102;-48
2021/12/11 07:28:01;;;;;;;41.45;20.75;;;7.40;75.30;;;;;;5076712;28;20044;-49
2021/12/11 07:30:28;;;;;;;42.20;21.25;;;7.40;75.00;;;;;;5087579;28;20048;-49
2021/12/11 07:32:56;;;;;;;45.28;22.15;;;7.40;74.90;;;;;;5076433;28;20044;-50
2021/12/11 07:35:23;;;;;;;47.45;23.98;;;7.40;74.90;;;;;;5078989;28;20055;-49
2021/12/11 07:37:51;;;;;;;45.10;23.45;;;7.40;74.90;;;;;;5083153;28;20071;-50
2021/12/11 07:40:22;;;;;;;41.72;22.15;;;7.40;75.00;;;;;;5080566;28;20036;-50
2021/12/11 07:42:49;;;;;;;42.28;22.30;;;7.40;75.10;;;;;;5064772;28;20037;-50
2021/12/11 07:45:19;;;;;;;46.72;23.23;;;7.40;75.20;;;;;;5069980;28;20044;-50
2021/12/11 07:47:46;;;;;;;50.60;25.45;;;7.40;75.30;;;;;;5082052;28;20449;-49
2021/12/11 07:50:13;;;;;;;47.90;24.85;;;7.40;75.20;;;;;;5040571;28;20072;-51
2021/12/11 07:52:41;;;;;;;52.40;25.08;;;7.40;75.20;;;;;;5067444;28;20045;-50
2021/12/11 07:55:09;;;;;;;45.38;23.33;;;7.40;75.20;;;;;;5066015;28;20048;-53
2021/12/11 07:57:37;;;;;;;45.22;24.63;;;7.40;75.30;;;;;;5063593;28;20049;-51
2021/12/11 08:00:14;;;;;;;45.50;23.73;;;7.50;75.30;;;;;;5057606;28;20094;-52
2021/12/11 08:02:41;;;;;;;44.80;22.13;;;7.50;75.40;;;;;;5066325;28;20131;-48
2021/12/11 08:05:09;;;;;;;42.03;23.42;;;7.50;75.30;;;;;;5055939;28;20060;-48
2021/12/11 08:07:36;;;;;;;46.28;24.38;;;7.50;75.30;;;;;;5066576;28;20048;-49
2021/12/11 08:10:07;;;;;;;44.90;24.73;;;7.50;75.40;;;;;;5046303;28;20101;-51
2021/12/11 08:12:34;;;;;;;43.10;24.38;;;7.50;75.40;;;;;;5057921;28;20499;-48
2021/12/11 08:15:02;;;;;;;45.25;23.05;;;7.60;75.40;;;;;;5061265;28;20040;-50
2021/12/11 08:17:29;;;;;;;41.45;22.40;;;7.60;75.30;;;;;;5053696;28;20045;-51
2021/12/11 08:19:56;;;;;;;39.88;23.02;;;7.60;75.30;;;;;;5050148;28;20044;-50
2021/12/11 08:22:23;;;;;;;41.45;23.42;;;7.60;75.40;;;;;;5064637;28;20044;-50
2021/12/11 08:24:50;;;;;;;42.70;23.35;;;7.60;75.50;;;;;;5041520;28;20052;-51
2021/12/11 08:27:21;;;;;;;39.40;22.17;;;7.60;75.50;;;;;;5055157;28;20391;-51
2021/12/11 08:29:51;;;;;;;35.47;20.50;;;7.60;75.70;;;;;;5056664;28;20049;-51
2021/12/11 08:32:20;;;;;;;39.10;21.27;;;7.60;75.60;;;;;;5065343;28;20503;-49
2021/12/11 08:34:48;;;;;;;36.30;21.17;;;7.70;75.60;;;;;;5054141;28;20045;-51
2021/12/11 08:37:19;;;;;;;35.50;20.23;;;7.70;75.60;;;;;;5056064;28;20053;-52
2021/12/11 08:39:46;;;;;;;34.15;20.13;;;7.70;75.60;;;;;;5059179;28;20048;-52
2021/12/11 08:42:17;;;;;;;32.70;20.20;;;7.70;75.60;;;;;;5057164;28;20597;-53
2021/12/11 08:44:51;;;;;;;34.88;20.58;;;7.80;75.70;;;;;;5062135;28;20099;-53
2021/12/11 08:47:21;;;;;;;33.38;20.05;;;7.80;75.60;;;;;;5052879;28;20482;-52
2021/12/11 08:49:51;;;;;;;33.92;21.13;;;7.80;75.50;;;;;;5051383;28;20551;-51
2021/12/11 08:52:24;;;;;;;35.83;21.38;;;7.80;75.50;;;;;;5054797;28;20052;-50
2021/12/11 08:54:52;;;;;;;35.08;20.10;;;7.80;75.50;;;;;;5070245;28;20406;-50
2021/12/11 08:57:23;;;;;;;36.95;20.35;;;7.80;75.50;;;;;;5070812;28;20048;-53
2021/12/11 08:59:53;;;;;;;30.88;19.38;;;7.80;75.50;;;;;;5074030;28;20097;-50
2021/12/11 09:02:34;;;;;;;31.92;18.45;;;7.80;75.60;;;;;;5078375;28;20044;-53
2021/12/11 09:05:05;;;;;;;28.63;18.63;;;7.80;75.90;;;;;;5051281;28;20079;-53
2021/12/11 09:08:11;;;;;;;30.13;18.47;;;7.90;75.80;;;;;;5070344;28;20044;-50
2021/12/11 09:11:01;;;;;;;27.63;16.88;;;7.90;76.00;;;;;;5024579;28;20056;-50
2021/12/11 09:13:44;;;;;;;30.05;16.77;;;7.90;76.00;;;;;;5069951;28;20103;-50
2021/12/11 09:16:17;;;;;;;24.50;15.40;;;7.90;76.40;;;;;;5069085;28;20040;-53
2021/12/11 09:19:09;;;;;;;27.88;17.60;;;8.00;76.40;;;;;;5077774;28;20044;-51
2021/12/11 09:22:08;;;;;;;27.70;16.45;;;8.00;76.40;;;;;;5081290;28;20109;-52
2021/12/11 09:24:54;;;;;;;24.13;15.35;;;8.00;76.50;;;;;;5072033;28;20037;-50
2021/12/11 09:27:27;;;;;;;32.42;16.25;;;8.10;76.40;;;;;;5043258;28;20462;-51
2021/12/11 09:30:01;;;;;;;26.48;17.48;;;8.10;76.40;;;;;;5058000;28;20133;-53
2021/12/11 09:32:37;;;;;;;31.88;18.48;;;8.20;76.50;;;;;;5060563;28;20049;-50
2021/12/11 09:35:13;;;;;;;29.63;18.42;;;8.20;76.60;;;;;;5059623;28;20047;-53
2021/12/11 09:37:43;;;;;;;28.92;16.90;;;8.20;76.60;;;;;;5063128;28;20044;-50
2021/12/11 09:40:34;;;;;;;31.52;18.30;;;8.30;76.50;;;;;;5062597;28;20036;-51
2021/12/11 09:43:04;;;;;;;31.35;16.77;;;8.30;76.70;;;;;;5067267;28;20503;-52
2021/12/11 09:45:35;;;;;;;28.00;18.45;;;8.40;76.60;;;;;;5062750;28;20115;-54
2021/12/11 09:48:17;;;;;;;28.70;19.15;;;8.40;76.60;;;;;;5056665;28;20044;-51
2021/12/11 09:50:56;;;;;;;27.00;16.92;;;8.40;76.80;;;;;;5057460;28;20048;-50
2021/12/11 09:53:29;;;;;;;28.73;17.05;;;8.50;76.70;;;;;;5076183;28;20449;-54
2021/12/11 09:55:57;;;;;;;25.98;15.93;;;8.50;76.60;;;;;;5052892;28;20040;-51
2021/12/11 09:58:29;;;;;;;27.83;16.52;;;8.60;76.70;;;;;;5071071;28;20036;-53
2021/12/11 10:00:55;;;;;;;;;;;8.60;76.70;;;;;;5046216;28;20126;-52
2021/12/11 10:03:26;;;;;;;23.55;15.48;;;8.70;77.20;;;;;;5074161;28;19924;-51
2021/12/11 10:06:12;;;;;;;26.05;16.80;;;8.70;76.70;;;;;;5057975;28;20033;-54
2021/12/11 10:08:44;;;;;;;28.42;15.13;;;8.80;76.90;;;;;;5066834;28;20411;-50
2021/12/11 10:11:20;;;;;;;25.08;16.17;;;8.80;76.80;;;;;;5050240;28;20062;-51
2021/12/11 10:14:04;;;;;;;22.17;14.70;;;8.90;76.90;;;;;;5059590;28;20074;-50
2021/12/11 10:16:36;;;;;;;20.90;13.63;;;9.00;76.80;;;;;;5058433;28;20052;-50
2021/12/11 10:19:05;;;;;;;;;;;9.00;76.80;;;;;;5075800;28;20475;-54
2021/12/11 10:21:41;;;;;;;18.65;10.15;;;9.00;77.10;;;;;;5050620;28;19920;-52
2021/12/11 10:24:18;;;;;;;15.93;9.80;;;9.10;76.40;;;;;;5064387;28;20051;-50
2021/12/11 10:26:45;;;;;;;16.17;9.00;;;9.10;76.30;;;;;;5055597;28;20049;-53
2021/12/11 10:29:14;;;;;;;14.18;8.05;;;9.10;76.20;;;;;;5075425;28;20044;-50
2021/12/11 10:31:50;;;;;;;18.83;8.35;;;9.20;76.30;;;;;;5051144;28;20102;-50
2021/12/11 10:34:21;;;;;;;11.85;7.63;;;9.20;76.20;;;;;;5078985;28;20457;-51
2021/12/11 10:36:59;;;;;;;12.50;7.20;;;9.20;76.10;;;;;;5032712;28;20095;-53
2021/12/11 10:39:26;;;;;;;11.93;6.90;;;9.30;76.40;;;;;;5049425;28;20049;-51
2021/12/11 10:41:54;;;;;;;12.85;6.68;;;9.30;76.30;;;;;;5053130;28;20055;-51
2021/12/11 10:44:26;;;;;;;14.95;7.03;;;9.30;76.20;;;;;;5068362;28;20040;-50
2021/12/11 10:47:03;;;;;;;10.23;6.25;;;9.40;76.20;;;;;;5051144;28;20699;-51
2021/12/11 10:49:31;;;;;;;12.02;5.43;;;9.40;76.10;;;;;;5035204;28;20468;-52
2021/12/11 10:52:28;;;;;;;9.52;5.95;;;9.50;76.20;;;;;;5055930;28;20677;-50
2021/12/11 10:54:57;;;;;;;9.00;5.03;;;9.50;76.10;;;;;;5069355;28;20051;-51
2021/12/11 10:57:25;;;;;;;10.82;5.68;;;9.60;76.00;;;;;;5055493;28;20098;-50
2021/12/11 10:59:55;;;;;;;10.65;5.18;;;9.60;75.90;;;;;;5068850;28;20064;-52
2021/12/11 11:02:29;;;;;;;9.05;5.90;;;9.70;75.90;;;;;;5061182;28;20064;-50
2021/12/11 11:05:14;;;;;;;10.13;5.35;;;9.70;75.70;;;;;;5077659;28;20116;-52
2021/12/11 11:07:43;;;;;;;10.90;4.75;;;9.80;75.50;;;;;;5063504;28;20435;-50
2021/12/11 11:10:16;;;;;;;7.55;4.53;;;9.80;75.50;;;;;;5058230;28;20643;-52
2021/12/11 11:12:43;;;;;;;12.63;4.80;;;9.90;75.50;;;;;;5060570;28;20435;-50
2021/12/11 11:15:11;;;;;;;10.40;4.85;;;9.90;75.30;;;;;;5067799;28;20037;-51
2021/12/11 11:17:38;;;;;;;10.00;4.78;;;10.00;75.20;;;;;;5057244;28;20055;-49
2021/12/11 11:20:12;;;;;;;8.48;4.28;;;10.00;75.00;;;;;;5067451;28;20119;-50
2021/12/11 11:22:42;;;;;;;9.13;4.60;;;10.00;74.80;;;;;;5072319;28;20040;-49
2021/12/11 11:25:22;;;;;;;8.68;4.75;;;10.10;74.80;;;;;;5058679;28;21150;-49
2021/12/11 11:27:56;;;;;;;9.27;4.47;;;10.10;74.30;;;;;;5066586;28;20033;-50
2021/12/11 11:30:32;;;;;;;8.23;3.92;;;10.10;74.10;;;;;;5061662;28;20052;-50
2021/12/11 11:33:00;;;;;;;9.52;4.63;;;10.10;74.00;;;;;;5063500;28;20682;-51
2021/12/11 11:35:30;;;;;;;6.65;4.07;;;10.10;74.00;;;;;;5071349;28;20037;-52
2021/12/11 11:37:59;;;;;;;9.85;4.43;;;10.20;74.10;;;;;;5063375;28;20044;-51
2021/12/11 11:40:31;;;;;;;8.07;5.10;;;10.20;74.10;;;;;;5065190;28;20037;-51
2021/12/11 11:42:58;;;;;;;;;;;10.20;74.30;;;;;;5061451;28;20036;-51
2021/12/11 11:45:27;;;;;;;8.60;4.00;;;10.30;74.40;;;;;;5059413;28;19959;-53
2021/12/11 11:48:01;;;;;;;9.45;4.78;;;10.30;74.00;;;;;;5067183;28;20033;-50
2021/12/11 11:50:33;;;;;;;7.25;4.68;;;10.30;74.00;;;;;;5069626;28;20037;-50
2021/12/11 11:53:00;;;;;;;10.18;4.40;;;10.40;73.80;;;;;;5053704;28;20067;-50
2021/12/11 11:55:32;;;;;;;12.73;4.95;;;10.40;73.80;;;;;;5047368;28;20073;-51
2021/12/11 11:57:59;;;;;;;6.57;4.00;;;10.40;73.60;;;;;;5066374;28;20041;-53
2021/12/11 12:00:43;;;;;;;10.63;4.20;;;10.40;73.50;;;;;;5060099;28;20041;-53
2021/12/11 12:03:13;;;;;;;8.10;4.55;;;10.50;74.10;;;;;;5052896;28;20407;-52
2021/12/11 12:05:42;;;;;;;5.60;4.25;;;10.50;73.20;;;;;;5059943;28;20121;-49
2021/12/11 12:08:12;;;;;;;8.98;4.45;;;10.50;73.10;;;;;;5058264;28;20082;-51
2021/12/11 12:10:39;;;;;;;12.65;5.85;;;10.50;72.80;;;;;;5059806;28;20438;-50
2021/12/11 12:13:07;;;;;;;10.05;4.85;;;10.50;72.60;;;;;;5051812;28;20099;-51
2021/12/11 12:15:46;;;;;;;9.18;4.57;;;10.50;72.60;;;;;;5054296;28;20691;-52
2021/12/11 12:18:14;;;;;;;10.00;4.18;;;10.50;72.10;;;;;;5077666;28;20036;-50
2021/12/11 12:20:42;;;;;;;6.30;4.32;;;10.50;72.10;;;;;;5067843;28;20407;-50
2021/12/11 12:23:10;;;;;;;8.40;4.13;;;10.40;72.20;;;;;;5061371;28;20086;-50
2021/12/11 12:25:40;;;;;;;8.60;4.45;;;10.40;72.30;;;;;;5050557;28;20048;-50
2021/12/11 12:28:10;;;;;;;9.90;4.43;;;10.40;72.20;;;;;;5068198;28;20644;-50
2021/12/11 12:30:41;;;;;;;5.45;4.07;;;10.30;72.10;;;;;;5058219;28;20469;-51
2021/12/11 12:33:08;;;;;;;6.50;4.90;;;10.30;72.20;;;;;;5067654;28;20066;-52
2021/12/11 12:35:37;;;;;;;8.27;4.47;;;10.30;72.40;;;;;;5061702;28;20094;-51
2021/12/11 12:38:07;;;;;;;8.40;4.22;;;10.30;72.50;;;;;;5063086;28;20177;-53
2021/12/11 12:40:48;;;;;;;8.35;4.38;;;10.30;72.70;;;;;;5059077;28;20045;-52
2021/12/11 12:43:42;;;;;;;10.27;4.20;;;10.30;72.70;;;;;;5058843;28;20384;-52
2021/12/11 12:46:24;;;;;;;8.90;4.20;;;10.30;72.80;;;;;;5056639;28;20036;-51
2021/12/11 12:48:51;;;;;;;10.52;4.40;;;10.30;72.90;;;;;;5071531;28;20125;-51
2021/12/11 12:51:18;;;;;;;8.65;4.55;;;10.40;73.10;;;;;;5048694;28;20037;-50
2021/12/11 12:53:47;;;;;;;6.65;4.18;;;10.40;72.90;;;;;;5077281;28;20043;-51
2021/12/11 12:56:19;;;;;;;7.63;4.78;;;10.40;73.00;;;;;;5054049;28;20044;-51
2021/12/11 12:59:09;;;;;;;9.75;4.78;;;10.50;73.20;;;;;;5051628;28;20040;-51
2021/12/11 13:01:36;;;;;;;8.13;4.68;;;10.50;72.90;;;;;;5065363;28;20036;-53
2021/12/11 13:04:10;;;;;;;8.20;4.95;;;10.50;72.80;;;;;;5076398;28;20036;-53
2021/12/11 13:06:39;;;;;;;;;;;10.50;72.70;;;;;;5080858;28;20576;-51
2021/12/11 13:09:17;;;;;;;5.72;3.95;;;10.60;72.80;;;;;;5068347;28;19921;-53
2021/12/11 13:11:55;;;;;;;10.05;5.15;;;10.60;72.40;;;;;;5069976;28;20446;-50
2021/12/11 13:14:22;;;;;;;7.13;4.40;;;10.60;72.20;;;;;;5078887;28;20044;-51
2021/12/11 13:16:52;;;;;;;8.68;5.05;;;10.60;72.40;;;;;;5087252;28;20040;-50
2021/12/11 13:19:29;;;;;;;10.27;5.85;;;10.60;72.60;;;;;;5091250;28;20101;-50
2021/12/11 13:22:06;;;;;;;8.27;5.68;;;10.50;72.70;;;;;;5058922;28;20097;-51
2021/12/11 13:24:34;;;;;;;11.82;6.20;;;10.60;73.00;;;;;;5073698;28;20040;-50
2021/12/11 13:27:07;;;;;;;12.07;7.47;;;10.60;73.10;;;;;;5049612;28;20052;-51
2021/12/11 13:29:37;;;;;;;9.65;5.68;;;10.60;72.90;;;;;;5050598;28;20080;-51
2021/12/11 13:32:06;;;;;;;10.25;5.60;;;10.70;72.90;;;;;;5066769;28;20040;-52